sensor_id;sensor_type;location;lat;lon;timestamp;temperature;humidity
30572;DHT22;17348;50.948;10.696;2023-04-28T00:01:32;8.30;99.90
30572;DHT22;17348;50.948;10.696;2023-04-28T00:04:35;8.20;99.90
30572;DHT22;17348;50.948;10.696;2023-04-28T00:07:37;8.20;99.90
30572;DHT22;17348;50.948;10.696;2023-04-28T00:10:40;8.10;99.90
30572;DHT22;17348;50.948;10.696;2023-04-28T00:13:42;8.10;99.90
30572;DHT22;17348;50.948;10.696;2023-04-28T00:16:44;8.10;99.90
30572;DHT22;17348;50.948;10.696;2023-04-28T00:19:49;8.00;99.90
30572;DHT22;17348;50.948;10.696;2023-04-28T00:22:51;7.90;99.90
30572;DHT22;17348;50.948;10.696;2023-04-28T00:25:54;7.90;99.90
30572;DHT22;17348;50.948;10.696;2023-04-28T00:28:57;7.90;99.90
30572;DHT22;17348;50.948;10.696;2023-04-28T00:31:59;7.80;99.90
30572;DHT22;17348;50.948;10.696;2023-04-28T00:35:06;7.80;99.90
30572;DHT22;17348;50.948;10.696;2023-04-28T00:38:08;7.80;99.90
30572;DHT22;17348;50.948;10.696;2023-04-28T00:41:11;7.80;99.90
30572;DHT22;17348;50.948;10.696;2023-04-28T00:44:14;7.80;99.90
30572;DHT22;17348;50.948;10.696;2023-04-28T00:47:17;7.80;99.90
30572;DHT22;17348;50.948;10.696;2023-04-28T00:50:21;7.80;99.90
30572;DHT22;17348;50.948;10.696;2023-04-28T00:53:25;7.80;99.90
30572;DHT22;17348;50.948;10.696;2023-04-28T00:56:28;7.80;99.90
30572;DHT22;17348;50.948;10.696;2023-04-28T00:59:31;7.70;99.90
30572;DHT22;17348;50.948;10.696;2023-04-28T01:02:34;7.70;99.90
30572;DHT22;17348;50.948;10.696;2023-04-28T01:05:38;7.80;99.90
30572;DHT22;17348;50.948;10.696;2023-04-28T01:08:40;7.80;99.90
30572;DHT22;17348;50.948;10.696;2023-04-28T01:11:44;7.80;99.90
30572;DHT22;17348;50.948;10.696;2023-04-28T01:14:46;7.80;99.90
30572;DHT22;17348;50.948;10.696;2023-04-28T01:17:49;7.80;99.90
30572;DHT22;17348;50.948;10.696;2023-04-28T01:20:52;7.80;99.90
30572;DHT22;17348;50.948;10.696;2023-04-28T01:23:56;7.80;99.90
30572;DHT22;17348;50.948;10.696;2023-04-28T01:26:59;7.80;99.90
30572;DHT22;17348;50.948;10.696;2023-04-28T01:30:01;7.80;99.90
30572;DHT22;17348;50.948;10.696;2023-04-28T01:33:04;7.80;99.90
30572;DHT22;17348;50.948;10.696;2023-04-28T01:36:06;7.80;99.90
30572;DHT22;17348;50.948;10.696;2023-04-28T01:39:10;7.80;99.90
30572;DHT22;17348;50.948;10.696;2023-04-28T01:42:12;7.80;99.90
30572;DHT22;17348;50.948;10.696;2023-04-28T01:45:15;7.90;99.90
30572;DHT22;17348;50.948;10.696;2023-04-28T01:48:17;7.90;99.90
30572;DHT22;17348;50.948;10.696;2023-04-28T01:51:19;7.90;99.90
30572;DHT22;17348;50.948;10.696;2023-04-28T01:54:23;7.90;99.90
30572;DHT22;17348;50.948;10.696;2023-04-28T01:57:26;7.90;99.90
30572;DHT22;17348;50.948;10.696;2023-04-28T02:00:29;7.80;99.90
30572;DHT22;17348;50.948;10.696;2023-04-28T02:03:31;7.80;99.90
30572;DHT22;17348;50.948;10.696;2023-04-28T02:06:33;7.80;99.90
30572;DHT22;17348;50.948;10.696;2023-04-28T02:09:37;7.80;99.90
30572;DHT22;17348;50.948;10.696;2023-04-28T02:12:39;7.80;99.90
30572;DHT22;17348;50.948;10.696;2023-04-28T02:15:43;7.70;99.90
30572;DHT22;17348;50.948;10.696;2023-04-28T02:18:45;7.70;99.90
30572;DHT22;17348;50.948;10.696;2023-04-28T02:21:47;7.70;99.90
30572;DHT22;17348;50.948;10.696;2023-04-28T02:24:51;7.70;99.90
30572;DHT22;17348;50.948;10.696;2023-04-28T02:27:53;7.70;99.90
30572;DHT22;17348;50.948;10.696;2023-04-28T02:31:03;7.70;99.90
30572;DHT22;17348;50.948;10.696;2023-04-28T02:34:05;7.70;99.90
30572;DHT22;17348;50.948;10.696;2023-04-28T02:37:08;7.70;99.90
30572;DHT22;17348;50.948;10.696;2023-04-28T02:40:12;7.60;99.90
30572;DHT22;17348;50.948;10.696;2023-04-28T02:43:14;7.70;99.90
30572;DHT22;17348;50.948;10.696;2023-04-28T02:46:17;7.60;99.90
30572;DHT22;17348;50.948;10.696;2023-04-28T02:49:19;7.60;99.90
30572;DHT22;17348;50.948;10.696;2023-04-28T02:52:22;7.60;99.90
30572;DHT22;17348;50.948;10.696;2023-04-28T02:55:25;7.60;99.90
30572;DHT22;17348;50.948;10.696;2023-04-28T02:58:28;7.60;99.90
30572;DHT22;17348;50.948;10.696;2023-04-28T03:01:30;7.60;99.90
30572;DHT22;17348;50.948;10.696;2023-04-28T03:04:33;7.60;99.90
30572;DHT22;17348;50.948;10.696;2023-04-28T03:07:35;7.60;99.90
30572;DHT22;17348;50.948;10.696;2023-04-28T03:10:39;7.60;99.90
30572;DHT22;17348;50.948;10.696;2023-04-28T03:13:41;7.60;99.90
30572;DHT22;17348;50.948;10.696;2023-04-28T03:16:43;7.60;99.90
30572;DHT22;17348;50.948;10.696;2023-04-28T03:19:46;7.60;99.90
30572;DHT22;17348;50.948;10.696;2023-04-28T03:22:48;7.60;99.90
30572;DHT22;17348;50.948;10.696;2023-04-28T03:25:52;7.60;99.90
30572;DHT22;17348;50.948;10.696;2023-04-28T03:28:54;7.60;99.90
30572;DHT22;17348;50.948;10.696;2023-04-28T03:31:56;7.60;99.90
30572;DHT22;17348;50.948;10.696;2023-04-28T03:34:59;7.60;99.90
30572;DHT22;17348;50.948;10.696;2023-04-28T03:38:01;7.60;99.90
30572;DHT22;17348;50.948;10.696;2023-04-28T03:41:05;7.70;99.90
30572;DHT22;17348;50.948;10.696;2023-04-28T03:44:07;7.60;99.90
30572;DHT22;17348;50.948;10.696;2023-04-28T03:47:09;7.70;99.90
30572;DHT22;17348;50.948;10.696;2023-04-28T03:50:12;7.60;99.90
30572;DHT22;17348;50.948;10.696;2023-04-28T03:53:14;7.70;99.90
30572;DHT22;17348;50.948;10.696;2023-04-28T03:56:18;7.70;99.90
30572;DHT22;17348;50.948;10.696;2023-04-28T03:59:21;7.70;99.90
30572;DHT22;17348;50.948;10.696;2023-04-28T04:02:23;7.70;99.90
30572;DHT22;17348;50.948;10.696;2023-04-28T04:05:25;7.70;99.90
30572;DHT22;17348;50.948;10.696;2023-04-28T04:08:28;7.70;99.90
30572;DHT22;17348;50.948;10.696;2023-04-28T04:11:32;7.70;99.90
30572;DHT22;17348;50.948;10.696;2023-04-28T04:14:34;7.70;99.90
30572;DHT22;17348;50.948;10.696;2023-04-28T04:17:36;7.70;99.90
30572;DHT22;17348;50.948;10.696;2023-04-28T04:20:38;7.70;99.90
30572;DHT22;17348;50.948;10.696;2023-04-28T04:23:44;7.70;99.90
30572;DHT22;17348;50.948;10.696;2023-04-28T04:26:47;7.70;99.90
30572;DHT22;17348;50.948;10.696;2023-04-28T04:29:50;7.70;99.90
30572;DHT22;17348;50.948;10.696;2023-04-28T04:32:52;7.70;99.90
30572;DHT22;17348;50.948;10.696;2023-04-28T04:35:54;7.70;99.90
30572;DHT22;17348;50.948;10.696;2023-04-28T04:38:57;7.80;99.90
30572;DHT22;17348;50.948;10.696;2023-04-28T04:42:01;7.80;99.90
30572;DHT22;17348;50.948;10.696;2023-04-28T04:45:04;7.80;99.90
30572;DHT22;17348;50.948;10.696;2023-04-28T04:48:07;7.80;99.90
30572;DHT22;17348;50.948;10.696;2023-04-28T04:51:09;7.80;99.90
30572;DHT22;17348;50.948;10.696;2023-04-28T04:54:12;7.80;99.90
30572;DHT22;17348;50.948;10.696;2023-04-28T04:57:15;7.70;99.90
30572;DHT22;17348;50.948;10.696;2023-04-28T05:00:18;7.70;99.90
30572;DHT22;17348;50.948;10.696;2023-04-28T05:03:21;7.80;99.90
30572;DHT22;17348;50.948;10.696;2023-04-28T05:06:23;7.70;99.90
30572;DHT22;17348;50.948;10.696;2023-04-28T05:09:26;7.70;99.90
30572;DHT22;17348;50.948;10.696;2023-04-28T05:12:31;7.70;99.90
30572;DHT22;17348;50.948;10.696;2023-04-28T05:15:33;7.70;99.90
30572;DHT22;17348;50.948;10.696;2023-04-28T05:18:38;7.70;99.90
30572;DHT22;17348;50.948;10.696;2023-04-28T05:21:40;7.70;99.90
30572;DHT22;17348;50.948;10.696;2023-04-28T05:24:42;7.70;99.90
30572;DHT22;17348;50.948;10.696;2023-04-28T05:27:47;7.70;99.90
30572;DHT22;17348;50.948;10.696;2023-04-28T05:30:50;7.70;99.90
30572;DHT22;17348;50.948;10.696;2023-04-28T05:33:52;7.80;99.90
30572;DHT22;17348;50.948;10.696;2023-04-28T05:36:54;7.90;99.90
30572;DHT22;17348;50.948;10.696;2023-04-28T05:39:57;8.00;99.90
30572;DHT22;17348;50.948;10.696;2023-04-28T05:43:00;8.00;99.90
30572;DHT22;17348;50.948;10.696;2023-04-28T05:46:03;8.00;99.90
30572;DHT22;17348;50.948;10.696;2023-04-28T05:49:05;8.10;99.90
30572;DHT22;17348;50.948;10.696;2023-04-28T05:52:08;8.20;99.90
30572;DHT22;17348;50.948;10.696;2023-04-28T05:55:10;8.30;99.90
30572;DHT22;17348;50.948;10.696;2023-04-28T05:58:14;8.30;99.90
30572;DHT22;17348;50.948;10.696;2023-04-28T06:01:16;8.30;99.90
30572;DHT22;17348;50.948;10.696;2023-04-28T06:04:19;8.40;99.90
30572;DHT22;17348;50.948;10.696;2023-04-28T06:07:21;8.50;99.90
30572;DHT22;17348;50.948;10.696;2023-04-28T06:10:24;8.50;99.90
30572;DHT22;17348;50.948;10.696;2023-04-28T06:13:28;8.60;99.90
30572;DHT22;17348;50.948;10.696;2023-04-28T06:16:31;8.70;99.90
30572;DHT22;17348;50.948;10.696;2023-04-28T06:19:33;8.70;99.90
30572;DHT22;17348;50.948;10.696;2023-04-28T06:22:36;8.70;99.90
30572;DHT22;17348;50.948;10.696;2023-04-28T06:25:38;8.70;99.90
30572;DHT22;17348;50.948;10.696;2023-04-28T06:28:45;8.70;99.90
30572;DHT22;17348;50.948;10.696;2023-04-28T06:31:47;8.70;99.90
30572;DHT22;17348;50.948;10.696;2023-04-28T06:34:53;8.60;99.90
30572;DHT22;17348;50.948;10.696;2023-04-28T06:37:55;8.60;99.90
30572;DHT22;17348;50.948;10.696;2023-04-28T06:40:58;8.50;99.90
30572;DHT22;17348;50.948;10.696;2023-04-28T06:44:01;8.40;99.90
30572;DHT22;17348;50.948;10.696;2023-04-28T06:47:04;8.40;99.90
30572;DHT22;17348;50.948;10.696;2023-04-28T06:50:07;8.50;99.90
30572;DHT22;17348;50.948;10.696;2023-04-28T06:53:09;8.60;99.90
30572;DHT22;17348;50.948;10.696;2023-04-28T06:56:13;8.80;99.90
30572;DHT22;17348;50.948;10.696;2023-04-28T06:59:17;9.00;99.90
30572;DHT22;17348;50.948;10.696;2023-04-28T07:02:19;9.10;99.90
30572;DHT22;17348;50.948;10.696;2023-04-28T07:05:21;9.20;99.90
30572;DHT22;17348;50.948;10.696;2023-04-28T07:08:24;9.30;99.90
30572;DHT22;17348;50.948;10.696;2023-04-28T07:11:26;9.50;99.90
30572;DHT22;17348;50.948;10.696;2023-04-28T07:14:30;9.60;99.90
30572;DHT22;17348;50.948;10.696;2023-04-28T07:17:32;9.70;99.90
30572;DHT22;17348;50.948;10.696;2023-04-28T07:20:35;9.80;99.90
30572;DHT22;17348;50.948;10.696;2023-04-28T07:23:37;10.00;99.90
30572;DHT22;17348;50.948;10.696;2023-04-28T07:26:40;10.10;99.90
30572;DHT22;17348;50.948;10.696;2023-04-28T07:29:44;10.30;99.90
30572;DHT22;17348;50.948;10.696;2023-04-28T07:32:48;10.30;99.90
30572;DHT22;17348;50.948;10.696;2023-04-28T07:35:50;10.40;99.90
30572;DHT22;17348;50.948;10.696;2023-04-28T07:38:53;10.40;99.90
30572;DHT22;17348;50.948;10.696;2023-04-28T07:41:56;10.40;99.90
30572;DHT22;17348;50.948;10.696;2023-04-28T07:45:00;10.40;99.90
30572;DHT22;17348;50.948;10.696;2023-04-28T07:48:03;10.30;99.90
30572;DHT22;17348;50.948;10.696;2023-04-28T07:51:05;10.30;99.90
30572;DHT22;17348;50.948;10.696;2023-04-28T07:54:07;10.20;99.90
30572;DHT22;17348;50.948;10.696;2023-04-28T07:57:10;10.10;99.90
30572;DHT22;17348;50.948;10.696;2023-04-28T08:00:14;10.00;99.90
30572;DHT22;17348;50.948;10.696;2023-04-28T08:03:18;9.90;99.90
30572;DHT22;17348;50.948;10.696;2023-04-28T08:06:23;9.70;99.90
30572;DHT22;17348;50.948;10.696;2023-04-28T08:09:26;9.60;99.90
30572;DHT22;17348;50.948;10.696;2023-04-28T08:12:28;9.50;99.90
30572;DHT22;17348;50.948;10.696;2023-04-28T08:15:32;9.30;99.90
30572;DHT22;17348;50.948;10.696;2023-04-28T08:18:35;9.30;99.90
30572;DHT22;17348;50.948;10.696;2023-04-28T08:21:37;9.40;99.90
30572;DHT22;17348;50.948;10.696;2023-04-28T08:24:40;9.40;99.90
30572;DHT22;17348;50.948;10.696;2023-04-28T08:27:42;9.50;99.90
30572;DHT22;17348;50.948;10.696;2023-04-28T08:30:46;9.50;99.90
30572;DHT22;17348;50.948;10.696;2023-04-28T08:33:48;9.60;99.90
30572;DHT22;17348;50.948;10.696;2023-04-28T08:36:51;9.70;99.90
30572;DHT22;17348;50.948;10.696;2023-04-28T08:39:53;9.80;99.90
30572;DHT22;17348;50.948;10.696;2023-04-28T08:43:02;9.90;99.90
30572;DHT22;17348;50.948;10.696;2023-04-28T08:46:06;10.00;99.90
30572;DHT22;17348;50.948;10.696;2023-04-28T08:49:13;10.10;99.90
30572;DHT22;17348;50.948;10.696;2023-04-28T08:52:16;10.20;99.90
30572;DHT22;17348;50.948;10.696;2023-04-28T08:55:19;10.30;99.90
30572;DHT22;17348;50.948;10.696;2023-04-28T08:58:23;10.40;99.90
30572;DHT22;17348;50.948;10.696;2023-04-28T09:01:29;10.50;99.90
30572;DHT22;17348;50.948;10.696;2023-04-28T09:04:32;10.70;99.90
30572;DHT22;17348;50.948;10.696;2023-04-28T09:07:35;10.80;99.90
30572;DHT22;17348;50.948;10.696;2023-04-28T09:10:38;10.90;99.90
30572;DHT22;17348;50.948;10.696;2023-04-28T09:13:40;10.90;99.90
30572;DHT22;17348;50.948;10.696;2023-04-28T09:16:44;11.00;99.90
30572;DHT22;17348;50.948;10.696;2023-04-28T09:19:46;11.00;99.90
30572;DHT22;17348;50.948;10.696;2023-04-28T09:22:50;11.00;99.90
30572;DHT22;17348;50.948;10.696;2023-04-28T09:26:00;11.10;99.90
30572;DHT22;17348;50.948;10.696;2023-04-28T09:29:11;11.00;99.90
30572;DHT22;17348;50.948;10.696;2023-04-28T09:32:16;11.10;99.90
30572;DHT22;17348;50.948;10.696;2023-04-28T09:35:38;11.20;99.90
30572;DHT22;17348;50.948;10.696;2023-04-28T09:38:43;11.30;99.90
30572;DHT22;17348;50.948;10.696;2023-04-28T09:41:45;11.30;99.90
30572;DHT22;17348;50.948;10.696;2023-04-28T09:44:52;11.40;99.90
30572;DHT22;17348;50.948;10.696;2023-04-28T09:48:10;11.30;99.90
30572;DHT22;17348;50.948;10.696;2023-04-28T09:51:19;11.40;99.90
30572;DHT22;17348;50.948;10.696;2023-04-28T09:54:23;11.40;99.90
30572;DHT22;17348;50.948;10.696;2023-04-28T09:57:30;11.40;99.90
30572;DHT22;17348;50.948;10.696;2023-04-28T10:00:33;11.40;99.90
30572;DHT22;17348;50.948;10.696;2023-04-28T10:03:38;11.30;99.90
30572;DHT22;17348;50.948;10.696;2023-04-28T10:06:41;11.40;99.90
30572;DHT22;17348;50.948;10.696;2023-04-28T10:09:45;11.30;99.90
30572;DHT22;17348;50.948;10.696;2023-04-28T10:12:50;11.40;99.90
30572;DHT22;17348;50.948;10.696;2023-04-28T10:15:52;11.50;99.90
30572;DHT22;17348;50.948;10.696;2023-04-28T10:19:00;11.50;99.90
30572;DHT22;17348;50.948;10.696;2023-04-28T10:22:18;11.40;99.90
30572;DHT22;17348;50.948;10.696;2023-04-28T10:25:26;11.50;99.90
30572;DHT22;17348;50.948;10.696;2023-04-28T10:28:29;11.50;99.90
30572;DHT22;17348;50.948;10.696;2023-04-28T10:31:32;11.50;99.90
30572;DHT22;17348;50.948;10.696;2023-04-28T10:34:36;11.50;99.90
30572;DHT22;17348;50.948;10.696;2023-04-28T10:38:04;11.50;99.90
30572;DHT22;17348;50.948;10.696;2023-04-28T10:41:32;11.60;99.90
30572;DHT22;17348;50.948;10.696;2023-04-28T10:44:41;11.60;99.90
30572;DHT22;17348;50.948;10.696;2023-04-28T10:47:59;11.70;99.90
30572;DHT22;17348;50.948;10.696;2023-04-28T10:51:29;11.80;99.90
30572;DHT22;17348;50.948;10.696;2023-04-28T10:54:33;11.90;99.90
30572;DHT22;17348;50.948;10.696;2023-04-28T10:57:36;12.00;99.90
30572;DHT22;17348;50.948;10.696;2023-04-28T11:00:39;12.00;99.90
30572;DHT22;17348;50.948;10.696;2023-04-28T11:03:48;12.00;99.90
30572;DHT22;17348;50.948;10.696;2023-04-28T11:07:16;12.10;99.90
30572;DHT22;17348;50.948;10.696;2023-04-28T11:10:18;12.30;99.90
30572;DHT22;17348;50.948;10.696;2023-04-28T11:13:24;12.30;99.90
30572;DHT22;17348;50.948;10.696;2023-04-28T11:16:27;12.40;99.90
30572;DHT22;17348;50.948;10.696;2023-04-28T11:19:30;12.50;99.90
30572;DHT22;17348;50.948;10.696;2023-04-28T11:22:34;12.60;99.90
30572;DHT22;17348;50.948;10.696;2023-04-28T11:25:54;12.70;99.90
30572;DHT22;17348;50.948;10.696;2023-04-28T11:28:57;13.00;99.90
30572;DHT22;17348;50.948;10.696;2023-04-28T11:32:00;13.10;99.90
30572;DHT22;17348;50.948;10.696;2023-04-28T11:35:03;13.20;99.90
30572;DHT22;17348;50.948;10.696;2023-04-28T11:38:11;13.40;99.90
30572;DHT22;17348;50.948;10.696;2023-04-28T11:41:13;13.70;99.90
30572;DHT22;17348;50.948;10.696;2023-04-28T11:44:17;13.90;99.90
30572;DHT22;17348;50.948;10.696;2023-04-28T11:47:30;14.00;99.90
30572;DHT22;17348;50.948;10.696;2023-04-28T11:50:36;14.20;99.90
30572;DHT22;17348;50.948;10.696;2023-04-28T11:53:43;14.40;99.90
30572;DHT22;17348;50.948;10.696;2023-04-28T11:56:46;14.50;99.90
30572;DHT22;17348;50.948;10.696;2023-04-28T11:59:49;14.80;99.90
30572;DHT22;17348;50.948;10.696;2023-04-28T12:02:51;14.90;99.90
30572;DHT22;17348;50.948;10.696;2023-04-28T12:05:54;15.20;99.90
30572;DHT22;17348;50.948;10.696;2023-04-28T12:08:57;15.30;99.90
30572;DHT22;17348;50.948;10.696;2023-04-28T12:12:05;15.20;99.90
30572;DHT22;17348;50.948;10.696;2023-04-28T12:15:08;15.20;99.90
30572;DHT22;17348;50.948;10.696;2023-04-28T12:18:11;15.10;99.90
30572;DHT22;17348;50.948;10.696;2023-04-28T12:21:20;15.10;99.90
30572;DHT22;17348;50.948;10.696;2023-04-28T12:24:24;14.90;99.90
30572;DHT22;17348;50.948;10.696;2023-04-28T12:27:27;14.80;99.90
30572;DHT22;17348;50.948;10.696;2023-04-28T12:30:31;14.90;99.90
30572;DHT22;17348;50.948;10.696;2023-04-28T12:33:34;15.00;99.90
30572;DHT22;17348;50.948;10.696;2023-04-28T12:36:39;15.10;99.90
30572;DHT22;17348;50.948;10.696;2023-04-28T12:39:46;15.20;99.90
30572;DHT22;17348;50.948;10.696;2023-04-28T12:42:48;15.40;99.90
30572;DHT22;17348;50.948;10.696;2023-04-28T12:45:52;15.60;99.90
30572;DHT22;17348;50.948;10.696;2023-04-28T12:48:55;15.80;99.90
30572;DHT22;17348;50.948;10.696;2023-04-28T12:51:58;16.00;99.90
30572;DHT22;17348;50.948;10.696;2023-04-28T12:55:01;16.00;99.90
30572;DHT22;17348;50.948;10.696;2023-04-28T12:58:04;16.10;99.90
30572;DHT22;17348;50.948;10.696;2023-04-28T13:01:06;16.20;99.90
30572;DHT22;17348;50.948;10.696;2023-04-28T13:04:09;16.20;99.90
30572;DHT22;17348;50.948;10.696;2023-04-28T13:07:12;16.20;99.90
30572;DHT22;17348;50.948;10.696;2023-04-28T13:10:16;16.10;99.90
30572;DHT22;17348;50.948;10.696;2023-04-28T13:13:20;16.00;99.90
30572;DHT22;17348;50.948;10.696;2023-04-28T13:16:22;16.00;99.90
30572;DHT22;17348;50.948;10.696;2023-04-28T13:19:28;15.90;99.90
30572;DHT22;17348;50.948;10.696;2023-04-28T13:22:33;15.90;99.90
30572;DHT22;17348;50.948;10.696;2023-04-28T13:25:37;15.70;99.90
30572;DHT22;17348;50.948;10.696;2023-04-28T13:28:39;15.60;99.90
30572;DHT22;17348;50.948;10.696;2023-04-28T13:31:42;15.50;99.90
30572;DHT22;17348;50.948;10.696;2023-04-28T13:34:44;15.40;99.90
30572;DHT22;17348;50.948;10.696;2023-04-28T13:37:47;15.40;99.90
30572;DHT22;17348;50.948;10.696;2023-04-28T13:40:50;15.50;99.90
30572;DHT22;17348;50.948;10.696;2023-04-28T13:43:53;15.80;99.90
30572;DHT22;17348;50.948;10.696;2023-04-28T13:46:55;16.00;99.90
30572;DHT22;17348;50.948;10.696;2023-04-28T13:49:58;16.20;99.90
30572;DHT22;17348;50.948;10.696;2023-04-28T13:53:01;16.40;99.90
30572;DHT22;17348;50.948;10.696;2023-04-28T13:56:06;16.50;99.90
30572;DHT22;17348;50.948;10.696;2023-04-28T13:59:09;16.60;99.90
30572;DHT22;17348;50.948;10.696;2023-04-28T14:02:11;16.50;99.90
30572;DHT22;17348;50.948;10.696;2023-04-28T14:05:14;16.60;99.90
30572;DHT22;17348;50.948;10.696;2023-04-28T14:08:18;16.60;99.90
30572;DHT22;17348;50.948;10.696;2023-04-28T14:11:21;16.70;99.90
30572;DHT22;17348;50.948;10.696;2023-04-28T14:14:24;16.70;99.90
30572;DHT22;17348;50.948;10.696;2023-04-28T14:17:27;16.70;99.90
30572;DHT22;17348;50.948;10.696;2023-04-28T14:20:29;16.70;99.90
30572;DHT22;17348;50.948;10.696;2023-04-28T14:23:32;16.60;99.90
30572;DHT22;17348;50.948;10.696;2023-04-28T14:26:36;16.50;99.90
30572;DHT22;17348;50.948;10.696;2023-04-28T14:29:38;16.50;99.90
30572;DHT22;17348;50.948;10.696;2023-04-28T14:32:42;16.40;99.90
30572;DHT22;17348;50.948;10.696;2023-04-28T14:35:45;16.40;99.90
30572;DHT22;17348;50.948;10.696;2023-04-28T14:38:47;16.30;99.90
30572;DHT22;17348;50.948;10.696;2023-04-28T14:41:51;16.20;99.90
30572;DHT22;17348;50.948;10.696;2023-04-28T14:44:53;16.10;99.90
30572;DHT22;17348;50.948;10.696;2023-04-28T14:47:56;16.10;99.90
30572;DHT22;17348;50.948;10.696;2023-04-28T14:50:59;16.00;99.90
30572;DHT22;17348;50.948;10.696;2023-04-28T14:54:01;16.00;99.90
30572;DHT22;17348;50.948;10.696;2023-04-28T14:57:05;16.00;99.90
30572;DHT22;17348;50.948;10.696;2023-04-28T15:00:09;15.90;99.90
30572;DHT22;17348;50.948;10.696;2023-04-28T15:03:11;15.80;99.90
30572;DHT22;17348;50.948;10.696;2023-04-28T15:06:14;15.80;99.90
30572;DHT22;17348;50.948;10.696;2023-04-28T15:09:16;15.80;99.90
30572;DHT22;17348;50.948;10.696;2023-04-28T15:12:20;15.90;99.90
30572;DHT22;17348;50.948;10.696;2023-04-28T15:15:23;15.90;99.90
30572;DHT22;17348;50.948;10.696;2023-04-28T15:18:25;15.90;99.90
30572;DHT22;17348;50.948;10.696;2023-04-28T15:21:29;15.90;99.90
30572;DHT22;17348;50.948;10.696;2023-04-28T15:24:31;16.00;99.90
30572;DHT22;17348;50.948;10.696;2023-04-28T15:27:35;16.00;99.90
30572;DHT22;17348;50.948;10.696;2023-04-28T15:30:37;16.00;99.90
30572;DHT22;17348;50.948;10.696;2023-04-28T15:33:39;16.10;99.90
30572;DHT22;17348;50.948;10.696;2023-04-28T15:36:42;16.10;99.90
30572;DHT22;17348;50.948;10.696;2023-04-28T15:39:44;16.20;99.90
30572;DHT22;17348;50.948;10.696;2023-04-28T15:42:49;16.20;99.90
30572;DHT22;17348;50.948;10.696;2023-04-28T15:45:53;16.20;99.90
30572;DHT22;17348;50.948;10.696;2023-04-28T15:48:55;16.00;99.90
30572;DHT22;17348;50.948;10.696;2023-04-28T15:51:58;16.00;99.90
30572;DHT22;17348;50.948;10.696;2023-04-28T15:55:00;15.90;99.90
30572;DHT22;17348;50.948;10.696;2023-04-28T15:58:04;15.90;99.90
30572;DHT22;17348;50.948;10.696;2023-04-28T16:01:06;15.80;99.90
30572;DHT22;17348;50.948;10.696;2023-04-28T16:04:10;15.80;99.90
30572;DHT22;17348;50.948;10.696;2023-04-28T16:07:13;15.70;99.90
30572;DHT22;17348;50.948;10.696;2023-04-28T16:10:15;15.60;99.90
30572;DHT22;17348;50.948;10.696;2023-04-28T16:13:19;15.50;99.90
30572;DHT22;17348;50.948;10.696;2023-04-28T16:16:22;15.50;99.90
30572;DHT22;17348;50.948;10.696;2023-04-28T16:19:25;15.40;99.90
30572;DHT22;17348;50.948;10.696;2023-04-28T16:22:28;15.40;99.90
30572;DHT22;17348;50.948;10.696;2023-04-28T16:25:30;15.40;99.90
30572;DHT22;17348;50.948;10.696;2023-04-28T16:28:34;15.30;99.90
30572;DHT22;17348;50.948;10.696;2023-04-28T16:31:37;15.30;99.90
30572;DHT22;17348;50.948;10.696;2023-04-28T16:34:39;15.40;99.90
30572;DHT22;17348;50.948;10.696;2023-04-28T16:37:42;15.40;99.90
30572;DHT22;17348;50.948;10.696;2023-04-28T16:40:44;15.40;99.90
30572;DHT22;17348;50.948;10.696;2023-04-28T16:43:48;15.30;99.90
30572;DHT22;17348;50.948;10.696;2023-04-28T16:46:50;15.30;99.90
30572;DHT22;17348;50.948;10.696;2023-04-28T16:49:53;15.40;99.90
30572;DHT22;17348;50.948;10.696;2023-04-28T16:52:55;15.40;99.90
30572;DHT22;17348;50.948;10.696;2023-04-28T16:55:57;15.40;99.90
30572;DHT22;17348;50.948;10.696;2023-04-28T16:59:01;15.40;99.90
30572;DHT22;17348;50.948;10.696;2023-04-28T17:02:04;15.40;99.90
30572;DHT22;17348;50.948;10.696;2023-04-28T17:05:07;15.40;99.90
30572;DHT22;17348;50.948;10.696;2023-04-28T17:08:10;15.50;99.90
30572;DHT22;17348;50.948;10.696;2023-04-28T17:11:15;15.40;99.90
30572;DHT22;17348;50.948;10.696;2023-04-28T17:14:19;15.40;99.90
30572;DHT22;17348;50.948;10.696;2023-04-28T17:17:22;15.40;99.90
30572;DHT22;17348;50.948;10.696;2023-04-28T17:20:24;15.40;99.90
30572;DHT22;17348;50.948;10.696;2023-04-28T17:23:26;15.40;99.90
30572;DHT22;17348;50.948;10.696;2023-04-28T17:26:29;15.50;99.90
30572;DHT22;17348;50.948;10.696;2023-04-28T17:29:33;15.40;99.90
30572;DHT22;17348;50.948;10.696;2023-04-28T17:32:37;15.50;99.90
30572;DHT22;17348;50.948;10.696;2023-04-28T17:35:39;15.50;99.90
30572;DHT22;17348;50.948;10.696;2023-04-28T17:38:41;15.50;99.90
30572;DHT22;17348;50.948;10.696;2023-04-28T17:41:44;15.40;99.90
30572;DHT22;17348;50.948;10.696;2023-04-28T17:44:48;15.50;99.90
30572;DHT22;17348;50.948;10.696;2023-04-28T17:47:51;15.50;99.90
30572;DHT22;17348;50.948;10.696;2023-04-28T17:50:54;15.40;99.90
30572;DHT22;17348;50.948;10.696;2023-04-28T17:53:56;15.40;99.90
30572;DHT22;17348;50.948;10.696;2023-04-28T17:56:59;15.30;99.90
30572;DHT22;17348;50.948;10.696;2023-04-28T18:00:04;15.20;99.90
30572;DHT22;17348;50.948;10.696;2023-04-28T18:03:07;15.10;99.90
30572;DHT22;17348;50.948;10.696;2023-04-28T18:06:09;14.90;99.90
30572;DHT22;17348;50.948;10.696;2023-04-28T18:09:12;14.80;99.90
30572;DHT22;17348;50.948;10.696;2023-04-28T18:12:14;14.60;99.90
30572;DHT22;17348;50.948;10.696;2023-04-28T18:15:18;14.40;99.90
30572;DHT22;17348;50.948;10.696;2023-04-28T18:18:21;14.20;99.90
30572;DHT22;17348;50.948;10.696;2023-04-28T18:21:23;14.10;99.90
30572;DHT22;17348;50.948;10.696;2023-04-28T18:24:26;14.00;99.90
30572;DHT22;17348;50.948;10.696;2023-04-28T18:27:28;13.90;99.90
30572;DHT22;17348;50.948;10.696;2023-04-28T18:30:32;13.70;99.90
30572;DHT22;17348;50.948;10.696;2023-04-28T18:33:39;13.60;99.90
30572;DHT22;17348;50.948;10.696;2023-04-28T18:36:42;13.50;99.90
30572;DHT22;17348;50.948;10.696;2023-04-28T18:39:44;13.30;99.90
30572;DHT22;17348;50.948;10.696;2023-04-28T18:42:46;13.20;99.90
30572;DHT22;17348;50.948;10.696;2023-04-28T18:45:51;13.10;99.90
30572;DHT22;17348;50.948;10.696;2023-04-28T18:48:53;13.00;99.90
30572;DHT22;17348;50.948;10.696;2023-04-28T18:51:56;12.90;99.90
30572;DHT22;17348;50.948;10.696;2023-04-28T18:55:04;12.80;99.90
30572;DHT22;17348;50.948;10.696;2023-04-28T18:58:07;12.70;99.90
30572;DHT22;17348;50.948;10.696;2023-04-28T19:01:14;12.60;99.90
30572;DHT22;17348;50.948;10.696;2023-04-28T19:04:17;12.60;99.90
30572;DHT22;17348;50.948;10.696;2023-04-28T19:07:19;12.50;99.90
30572;DHT22;17348;50.948;10.696;2023-04-28T19:10:22;12.50;99.90